createdAt,value
2023-05-22T00:01:52.364Z,97103.16
2023-05-22T00:04:22.253Z,97112.34
2023-05-22T00:06:50.316Z,97100.44
2023-05-22T00:09:17.938Z,97089.19
2023-05-22T00:11:45.919Z,97088.00
2023-05-22T00:14:16.570Z,97093.06
2023-05-22T00:16:44.489Z,97086.09
2023-05-22T00:19:17.088Z,97093.06
2023-05-22T00:21:45.873Z,97091.56
2023-05-22T00:24:23.457Z,97084.56
2023-05-22T00:26:53.621Z,97096.47
2023-05-22T00:29:20.838Z,97089.59
2023-05-22T00:31:48.456Z,97086.31
2023-05-22T00:34:19.449Z,97087.63
2023-05-22T00:36:47.000Z,97089.56
2023-05-22T00:39:14.701Z,97083.94
2023-05-22T00:41:41.971Z,97086.94
2023-05-22T00:44:12.434Z,97080.59
2023-05-22T00:46:43.995Z,97086.31
2023-05-22T00:49:16.973Z,97082.28
2023-05-22T00:51:44.904Z,97079.22
2023-05-22T00:54:14.469Z,97092.03
2023-05-22T00:56:42.468Z,97077.50
2023-05-22T00:59:09.476Z,97084.16
2023-05-22T01:01:42.326Z,97091.53
2023-05-22T01:04:13.690Z,97080.38
2023-05-22T01:06:42.016Z,97086.91
2023-05-22T01:09:09.705Z,97081.66
2023-05-22T01:11:49.247Z,97088.28
2023-05-22T01:14:30.238Z,97078.03
2023-05-22T01:17:06.909Z,97078.09
2023-05-22T01:20:02.606Z,97079.59
2023-05-22T01:22:58.848Z,97071.41
2023-05-22T01:25:35.648Z,97067.69
2023-05-22T01:28:17.950Z,97077.28
2023-05-22T01:30:51.252Z,97080.09
2023-05-22T01:33:20.917Z,97078.41
2023-05-22T01:35:56.383Z,97080.84
2023-05-22T01:38:25.247Z,97082.28
2023-05-22T01:41:03.271Z,97078.13
2023-05-22T01:43:31.944Z,97077.69
2023-05-22T01:46:00.194Z,97073.25
2023-05-22T01:48:28.393Z,97075.50
2023-05-22T01:50:57.918Z,97077.03
2023-05-22T01:53:37.046Z,97068.69
2023-05-22T01:56:17.254Z,97072.75
2023-05-22T01:58:57.427Z,97071.22
2023-05-22T02:01:28.567Z,97074.00
2023-05-22T02:03:59.497Z,97076.06
2023-05-22T02:06:35.540Z,97068.84
2023-05-22T02:09:03.914Z,97065.69
2023-05-22T02:11:34.443Z,97067.50
2023-05-22T02:14:02.630Z,97084.81
2023-05-22T02:16:30.691Z,97069.31
2023-05-22T02:19:06.718Z,97069.31
2023-05-22T02:21:35.846Z,97075.44
2023-05-22T02:24:03.896Z,97075.72
2023-05-22T02:26:34.741Z,97080.69
2023-05-22T02:29:04.660Z,97075.16
2023-05-22T02:31:31.577Z,97078.47
2023-05-22T02:33:58.696Z,97073.78
2023-05-22T02:36:26.420Z,97077.91
2023-05-22T02:38:54.858Z,97075.72
2023-05-22T02:41:22.321Z,97078.19
2023-05-22T02:43:49.094Z,97082.78
2023-05-22T02:46:24.083Z,97077.78
2023-05-22T02:48:51.046Z,97076.78
2023-05-22T02:51:17.972Z,97073.78
2023-05-22T02:53:46.231Z,97073.22
2023-05-22T02:56:13.250Z,97069.06
2023-05-22T02:58:40.325Z,97079.84
2023-05-22T03:01:07.398Z,97074.19
2023-05-22T03:03:34.353Z,97077.66
2023-05-22T03:06:01.906Z,97081.09
2023-05-22T03:08:29.172Z,97077.94
2023-05-22T03:11:02.306Z,97072.94
2023-05-22T03:13:29.249Z,97072.81
2023-05-22T03:15:56.516Z,97078.75
2023-05-22T03:18:25.912Z,97072.28
2023-05-22T03:20:54.368Z,97077.53
2023-05-22T03:23:21.388Z,97073.50
2023-05-22T03:25:48.272Z,97072.94
2023-05-22T03:28:16.262Z,97071.84
2023-05-22T03:30:43.132Z,97082.34
2023-05-22T03:33:11.915Z,97078.19
2023-05-22T03:35:38.807Z,97072.66
2023-05-22T03:38:06.005Z,97084.00
2023-05-22T03:40:32.964Z,97076.25
2023-05-22T03:43:00.221Z,97068.78
2023-05-22T03:45:27.505Z,97072.66
2023-05-22T03:47:54.412Z,97076.00
2023-05-22T03:50:21.854Z,97081.09
2023-05-22T03:52:48.735Z,97072.63
2023-05-22T03:55:16.479Z,97074.28
2023-05-22T03:57:43.346Z,97072.31
2023-05-22T04:00:12.029Z,97084.25
2023-05-22T04:02:45.275Z,97075.38
2023-05-22T04:05:12.696Z,97080.38
2023-05-22T04:07:39.775Z,97075.88
2023-05-22T04:10:07.577Z,97075.03
2023-05-22T04:12:34.798Z,97079.56
2023-05-22T04:15:01.690Z,97077.19
2023-05-22T04:17:35.833Z,97067.44
2023-05-22T04:20:02.687Z,97068.91
2023-05-22T04:22:31.068Z,97072.59
2023-05-22T04:24:58.362Z,97066.75
2023-05-22T04:27:30.369Z,97070.59
2023-05-22T04:30:00.272Z,97069.19
2023-05-22T04:32:27.677Z,97071.44
2023-05-22T04:34:54.595Z,97069.13
2023-05-22T04:37:21.654Z,97071.97
2023-05-22T04:39:48.536Z,97063.56
2023-05-22T04:42:16.189Z,97071.41
2023-05-22T04:44:44.002Z,97068.00
2023-05-22T04:47:14.633Z,97076.78
2023-05-22T04:49:42.661Z,97069.72
2023-05-22T04:52:12.696Z,97067.69
2023-05-22T04:54:40.014Z,97070.78
2023-05-22T04:57:07.005Z,97070.19
2023-05-22T04:59:40.094Z,97069.75
2023-05-22T05:02:07.746Z,97075.56
2023-05-22T05:04:34.859Z,97063.72
2023-05-22T05:07:02.762Z,97070.97
2023-05-22T05:09:40.286Z,97076.31
2023-05-22T05:12:07.254Z,97067.38
2023-05-22T05:14:34.008Z,97061.94
2023-05-22T05:20:15.224Z,97074.34
2023-05-22T05:22:44.135Z,97068.41
2023-05-22T05:25:12.710Z,97069.66
2023-05-22T05:27:40.196Z,97059.25
2023-05-22T05:30:08.855Z,97057.31
2023-05-22T05:32:36.129Z,97066.94
2023-05-22T05:35:12.448Z,97051.81
2023-05-22T05:37:39.279Z,97059.94
2023-05-22T05:40:12.589Z,97057.44
2023-05-22T05:42:42.679Z,97059.16
2023-05-22T05:45:11.696Z,97051.28
2023-05-22T05:47:51.647Z,97048.22
2023-05-22T05:50:21.196Z,97055.13
2023-05-22T05:52:49.162Z,97047.19
2023-05-22T05:55:16.357Z,97051.84
2023-05-22T05:57:43.511Z,97058.41
2023-05-22T06:00:13.964Z,97051.47
2023-05-22T06:02:42.275Z,97042.00
2023-05-22T06:05:10.409Z,97037.59
2023-05-22T06:07:38.304Z,97046.28
2023-05-22T06:10:13.100Z,97036.63
2023-05-22T06:12:43.372Z,97038.53
2023-05-22T06:15:13.586Z,97031.47
2023-05-22T06:17:41.462Z,97027.22
2023-05-22T06:20:22.170Z,97023.56
2023-05-22T06:22:49.020Z,97018.84
2023-05-22T06:25:15.882Z,97019.94
2023-05-22T06:27:42.913Z,97019.72
2023-05-22T06:30:16.898Z,97013.63
2023-05-22T06:32:49.551Z,97019.41
2023-05-22T06:35:20.032Z,97014.09
2023-05-22T06:37:47.023Z,97010.53
2023-05-22T06:40:14.355Z,97008.50
2023-05-22T06:42:41.514Z,97003.06
2023-05-22T06:45:11.857Z,97003.50
2023-05-22T06:47:49.321Z,97006.63
2023-05-22T06:50:26.784Z,97012.84
2023-05-22T06:53:16.620Z,97012.56
2023-05-22T06:55:43.908Z,97014.94
2023-05-22T06:58:11.003Z,97018.72
2023-05-22T07:00:38.580Z,97017.97
2023-05-22T07:03:07.027Z,97013.56
2023-05-22T07:05:34.378Z,97020.34
2023-05-22T07:08:01.947Z,97008.50
2023-05-22T07:10:31.875Z,97016.19
2023-05-22T07:13:04.307Z,97017.97
2023-05-22T07:15:31.558Z,97015.75
2023-05-22T07:17:59.091Z,97012.50
2023-05-22T07:20:29.149Z,97014.66
2023-05-22T07:23:05.906Z,97011.16
2023-05-22T07:25:32.734Z,97016.97
2023-05-22T07:28:02.481Z,97016.84
2023-05-22T07:30:32.630Z,97018.03
2023-05-22T07:33:03.121Z,97010.78
2023-05-22T07:35:33.026Z,97016.59
2023-05-22T07:38:00.070Z,97025.09
2023-05-22T07:40:27.306Z,97023.94
2023-05-22T07:43:04.984Z,97022.81
2023-05-22T07:45:31.888Z,97017.47
2023-05-22T07:48:01.177Z,97011.94
2023-05-22T07:50:30.685Z,97015.34
2023-05-22T07:52:57.753Z,97021.66
2023-05-22T07:55:24.681Z,97022.13
2023-05-22T07:57:56.391Z,97023.78
2023-05-22T08:00:23.870Z,97025.41
2023-05-22T08:02:50.788Z,97020.56
2023-05-22T08:05:17.764Z,97017.41
2023-05-22T08:07:54.629Z,97026.63
2023-05-22T08:10:22.228Z,97024.38
2023-05-22T08:12:52.215Z,97021.81
2023-05-22T08:15:19.633Z,97022.88
2023-05-22T08:18:00.491Z,97013.41
2023-05-22T08:20:29.845Z,97015.81
2023-05-22T08:22:59.630Z,97012.56
2023-05-22T08:25:26.866Z,97011.03
2023-05-22T08:27:53.970Z,97007.38
2023-05-22T08:30:22.678Z,97012.06
2023-05-22T08:32:52.723Z,97014.66
2023-05-22T08:35:22.831Z,97015.00
2023-05-22T08:37:50.364Z,97005.88
2023-05-22T08:40:20.277Z,97013.50
2023-05-22T08:42:54.624Z,97006.66
2023-05-22T08:45:21.609Z,97011.88
2023-05-22T08:47:53.982Z,96999.75
2023-05-22T08:50:22.711Z,97004.59
2023-05-22T08:52:57.360Z,97001.75
2023-05-22T08:55:25.051Z,96992.75
2023-05-22T08:57:54.211Z,96990.03
2023-05-22T09:00:22.311Z,96987.09
2023-05-22T09:02:52.958Z,96976.78
2023-05-22T09:05:19.988Z,96975.72
2023-05-22T09:07:49.225Z,96977.69
2023-05-22T09:10:16.390Z,96976.78
2023-05-22T09:16:13.182Z,96973.72
2023-05-22T09:18:54.229Z,96981.38
2023-05-22T09:24:00.241Z,96978.97
2023-05-22T09:26:29.576Z,96982.72
2023-05-22T09:29:01.381Z,96978.63
2023-05-22T09:31:31.938Z,96982.38
2023-05-22T09:34:00.936Z,96983.66
2023-05-22T09:36:42.027Z,96982.63
2023-05-22T09:39:10.261Z,96986.69
2023-05-22T09:44:34.234Z,96968.72
2023-05-22T09:47:01.277Z,96972.91
2023-05-22T09:49:29.436Z,96963.41
2023-05-22T09:52:00.029Z,96962.91
2023-05-22T09:54:35.337Z,96969.22
2023-05-22T09:57:07.595Z,96966.63
2023-05-22T09:59:40.361Z,96968.84
2023-05-22T10:02:10.301Z,96969.97
2023-05-22T10:04:41.013Z,96972.34
2023-05-22T10:07:11.732Z,96975.50
2023-05-22T10:09:41.021Z,96967.25
2023-05-22T10:12:10.642Z,96971.50
2023-05-22T10:14:38.472Z,96966.03
2023-05-22T10:17:12.561Z,96965.75
2023-05-22T10:19:49.788Z,96970.19
2023-05-22T10:22:21.806Z,96971.06
2023-05-22T10:24:50.686Z,96970.97
2023-05-22T10:27:21.729Z,96967.28
2023-05-22T10:30:01.046Z,96961.44
2023-05-22T10:32:36.265Z,96960.47
2023-05-22T10:35:21.252Z,96966.22
2023-05-22T10:37:55.330Z,96965.78
2023-05-22T10:40:34.576Z,96966.94
2023-05-22T10:43:04.724Z,96974.38
2023-05-22T10:45:34.495Z,96967.81
2023-05-22T10:48:10.048Z,96960.75
2023-05-22T10:50:37.261Z,96959.59
2023-05-22T10:53:31.846Z,96958.06
2023-05-22T10:56:16.921Z,96955.41
2023-05-22T10:59:00.509Z,96944.19
2023-05-22T11:01:27.788Z,96934.03
2023-05-22T11:03:55.239Z,96932.72
2023-05-22T11:06:31.669Z,96934.50
2023-05-22T11:08:59.400Z,96929.69
2023-05-22T11:11:27.673Z,96928.25
2023-05-22T11:14:03.626Z,96923.25
2023-05-22T11:16:37.826Z,96926.81
2023-05-22T11:19:22.592Z,96918.00
2023-05-22T11:21:52.093Z,96922.50
2023-05-22T11:24:20.071Z,96924.53
2023-05-22T11:27:03.409Z,96914.41
2023-05-22T11:29:39.044Z,96910.78
2023-05-22T11:32:23.827Z,96914.59
2023-05-22T11:35:01.853Z,96912.19
2023-05-22T11:37:33.418Z,96916.63
2023-05-22T11:40:15.901Z,96907.03
2023-05-22T11:42:43.797Z,96912.84
2023-05-22T11:45:22.056Z,96909.41
2023-05-22T11:47:50.681Z,96897.16
2023-05-22T11:50:40.263Z,96901.63
2023-05-22T11:53:09.105Z,96881.19
2023-05-22T11:55:36.956Z,96892.69
2023-05-22T11:58:07.191Z,96877.78
2023-05-22T12:00:34.061Z,96880.75
2023-05-22T12:03:01.841Z,96878.94
2023-05-22T12:05:32.445Z,96875.91
2023-05-22T12:08:00.198Z,96883.38
2023-05-22T12:10:27.846Z,96886.19
2023-05-22T12:12:55.666Z,96884.56
2023-05-22T12:15:25.263Z,96875.91
2023-05-22T12:17:55.924Z,96878.25
2023-05-22T12:20:31.310Z,96876.91
2023-05-22T12:23:07.574Z,96866.75
2023-05-22T12:25:40.121Z,96856.28
2023-05-22T12:28:07.740Z,96866.19
2023-05-22T12:30:56.598Z,96872.38
2023-05-22T12:33:33.580Z,96857.00
2023-05-22T12:36:01.382Z,96859.78
2023-05-22T12:38:34.049Z,96850.72
2023-05-22T12:41:03.021Z,96846.44
2023-05-22T12:43:39.506Z,96841.53
2023-05-22T12:46:06.652Z,96832.19
2023-05-22T12:48:42.887Z,96827.84
2023-05-22T12:51:09.875Z,96824.47
2023-05-22T12:53:36.935Z,96821.91
2023-05-22T12:56:04.517Z,96822.19
2023-05-22T12:58:34.669Z,96817.72
2023-05-22T13:01:04.155Z,96825.09
2023-05-22T13:03:31.605Z,96832.63
2023-05-22T13:05:58.452Z,96826.00
2023-05-22T13:08:25.708Z,96829.03
2023-05-22T13:10:52.776Z,96832.53
2023-05-22T13:13:19.715Z,96832.19
2023-05-22T13:15:46.798Z,96837.09
2023-05-22T13:18:16.863Z,96832.19
2023-05-22T13:20:43.905Z,96831.25
2023-05-22T13:23:10.868Z,96828.66
2023-05-22T13:25:38.183Z,96823.13
2023-05-22T13:28:05.089Z,96811.56
2023-05-22T13:30:32.649Z,96811.91
2023-05-22T13:32:59.652Z,96814.41
2023-05-22T13:35:27.026Z,96817.22
2023-05-22T13:37:54.244Z,96831.59
2023-05-22T13:40:21.455Z,96838.19
2023-05-22T13:42:48.320Z,96862.44
2023-05-22T13:45:18.549Z,96898.41
2023-05-22T13:47:45.643Z,96912.94
2023-05-22T13:50:12.629Z,96925.34
2023-05-22T13:52:39.469Z,96935.28
2023-05-22T13:55:07.122Z,96940.88
2023-05-22T13:57:48.956Z,96946.22
2023-05-22T14:00:16.596Z,96949.97
2023-05-22T14:02:47.851Z,96950.56
2023-05-22T14:05:15.822Z,96954.88
2023-05-22T14:07:43.590Z,96958.09
2023-05-22T14:10:10.753Z,96957.13
2023-05-22T14:12:38.800Z,96963.28
2023-05-22T14:15:06.870Z,96973.53
2023-05-22T14:17:37.950Z,96973.81
2023-05-22T14:20:05.823Z,96966.84
2023-05-22T14:22:38.553Z,96965.28
2023-05-22T14:25:12.391Z,96961.06
2023-05-22T14:27:40.086Z,96963.19
2023-05-22T14:30:11.175Z,96959.41
2023-05-22T14:32:41.220Z,96961.53
2023-05-22T14:35:08.664Z,96961.25
2023-05-22T14:37:37.418Z,96976.44
2023-05-22T14:40:05.220Z,96949.69
2023-05-22T14:42:32.682Z,96949.41
2023-05-22T14:44:59.971Z,96967.22
2023-05-22T14:47:27.547Z,96981.66
2023-05-22T14:49:57.612Z,97003.06
2023-05-22T14:52:30.232Z,96998.97
2023-05-22T14:54:58.344Z,96992.38
2023-05-22T14:57:25.548Z,96981.78
2023-05-22T14:59:55.000Z,96968.19
2023-05-22T15:02:24.840Z,96958.75
2023-05-22T15:04:52.154Z,96953.97
2023-05-22T15:07:19.797Z,96944.72
2023-05-22T15:09:48.400Z,96949.22
2023-05-22T15:12:18.973Z,96938.59
2023-05-22T15:14:47.050Z,96937.47
2023-05-22T15:17:14.778Z,96944.53
2023-05-22T15:19:44.071Z,96939.50
2023-05-22T15:22:19.348Z,96935.09
2023-05-22T15:25:04.856Z,96932.31
2023-05-22T15:27:33.370Z,96926.38
2023-05-22T15:30:00.206Z,96918.44
2023-05-22T15:32:27.373Z,96923.38
2023-05-22T15:34:54.269Z,96921.25
2023-05-22T15:37:21.376Z,96920.44
2023-05-22T15:39:48.249Z,96920.06
2023-05-22T15:42:15.380Z,96915.25
2023-05-22T15:44:42.269Z,96918.31
2023-05-22T15:47:09.018Z,96914.31
2023-05-22T15:49:36.108Z,96909.59
2023-05-22T15:52:03.245Z,96924.81
2023-05-22T15:54:30.035Z,96925.16
2023-05-22T15:56:57.026Z,96928.47
2023-05-22T15:59:24.054Z,96928.09
2023-05-22T16:01:51.247Z,96925.41
2023-05-22T16:04:18.175Z,96918.75
2023-05-22T16:06:45.177Z,96926.34
2023-05-22T16:09:12.662Z,96909.44
2023-05-22T16:11:39.597Z,96915.00
2023-05-22T16:14:06.828Z,96913.38
2023-05-22T16:16:33.945Z,96915.56
2023-05-22T16:19:00.942Z,96907.59
2023-05-22T16:21:27.992Z,96902.19
2023-05-22T16:23:54.931Z,96902.59
2023-05-22T16:26:22.988Z,96906.25
2023-05-22T16:28:50.848Z,96912.19
2023-05-22T16:31:20.045Z,96905.69
2023-05-22T16:33:47.056Z,96899.44
2023-05-22T16:36:13.909Z,96907.59
2023-05-22T16:38:41.435Z,96915.75
2023-05-22T16:41:08.435Z,96934.41
2023-05-22T16:43:37.069Z,96944.38
2023-05-22T16:46:04.310Z,96952.75
2023-05-22T16:48:31.059Z,96953.44
2023-05-22T16:50:58.011Z,96957.44
2023-05-22T16:53:25.432Z,96967.06
2023-05-22T16:55:52.362Z,96968.06
2023-05-22T16:58:19.247Z,96971.34
2023-05-22T17:00:47.106Z,96985.28
2023-05-22T17:03:17.444Z,96976.31
2023-05-22T17:05:44.462Z,96985.97
2023-05-22T17:08:11.746Z,96990.25
2023-05-22T17:10:38.728Z,96988.56
2023-05-22T17:13:05.791Z,97006.50
2023-05-22T17:15:32.856Z,97036.28
2023-05-22T17:17:59.838Z,97068.22
2023-05-22T17:20:28.840Z,97057.31
2023-05-22T17:22:55.954Z,97036.81
2023-05-22T17:25:23.208Z,97011.13
2023-05-22T17:27:50.115Z,97004.47
2023-05-22T17:30:17.555Z,96987.13
2023-05-22T17:32:45.376Z,96987.13
2023-05-22T17:35:12.115Z,96984.78
2023-05-22T17:37:39.092Z,96984.81
2023-05-22T17:40:06.957Z,96977.56
2023-05-22T17:42:36.429Z,96984.88
2023-05-22T17:45:05.757Z,96987.53
2023-05-22T17:47:32.642Z,96991.81
2023-05-22T17:49:59.481Z,97004.91
2023-05-22T17:52:26.994Z,97000.28
2023-05-22T17:54:56.007Z,97000.91
2023-05-22T17:57:26.434Z,97005.41
2023-05-22T17:59:57.182Z,96998.31
2023-05-22T18:02:24.692Z,96996.50
2023-05-22T18:04:51.919Z,96996.03
2023-05-22T18:07:29.165Z,96999.00
2023-05-22T18:09:56.935Z,97001.84
2023-05-22T18:12:31.784Z,96992.06
2023-05-22T18:15:00.781Z,96990.59
2023-05-22T18:17:28.094Z,97006.97
2023-05-22T18:19:55.363Z,96998.53
2023-05-22T18:22:31.535Z,97009.78
2023-05-22T18:24:59.277Z,97010.47
2023-05-22T18:27:29.717Z,97010.66
2023-05-22T18:29:58.075Z,97008.13
2023-05-22T18:32:25.562Z,97010.47
2023-05-22T18:34:56.055Z,97015.09
2023-05-22T18:37:30.219Z,97019.09
2023-05-22T18:39:57.772Z,97023.41
2023-05-22T18:42:25.360Z,97025.72
2023-05-22T18:44:55.868Z,97024.25
2023-05-22T18:47:23.030Z,97031.34
2023-05-22T18:49:50.364Z,97035.63
2023-05-22T18:52:24.058Z,97034.34
2023-05-22T18:54:51.605Z,97038.28
2023-05-22T18:57:21.954Z,97036.97
2023-05-22T18:59:50.125Z,97041.25
2023-05-22T19:02:21.528Z,97052.31
2023-05-22T19:04:49.508Z,97047.84
2023-05-22T19:07:16.975Z,97046.16
2023-05-22T19:09:44.329Z,97052.78
2023-05-22T19:12:11.645Z,97051.47
2023-05-22T19:14:38.985Z,97046.84
2023-05-22T19:17:06.758Z,97043.84
2023-05-22T19:19:34.251Z,97055.91
2023-05-22T19:22:01.489Z,97056.22
2023-05-22T19:24:28.576Z,97062.63
2023-05-22T19:27:06.337Z,97051.00
2023-05-22T19:29:33.599Z,97050.00
2023-05-22T19:32:04.240Z,97061.84
2023-05-22T19:34:31.857Z,97066.28
2023-05-22T19:36:58.890Z,97058.47
2023-05-22T19:39:26.115Z,97074.63
2023-05-22T19:42:04.536Z,97065.25
2023-05-22T19:44:32.284Z,97060.94
2023-05-22T19:47:03.741Z,97068.66
2023-05-22T19:49:32.250Z,97067.03
2023-05-22T19:52:00.638Z,97069.66
2023-05-22T19:54:28.908Z,97071.94
2023-05-22T19:56:56.597Z,97074.63
2023-05-22T19:59:24.021Z,97074.19
2023-05-22T20:01:54.733Z,97068.75
2023-05-22T20:04:22.901Z,97064.94
2023-05-22T20:06:51.669Z,97068.41
2023-05-22T20:09:19.612Z,97071.53
2023-05-22T20:11:51.720Z,97076.59
2023-05-22T20:14:20.455Z,97070.91
2023-05-22T20:16:50.690Z,97060.88
2023-05-22T20:19:18.520Z,97070.09
2023-05-22T20:21:49.762Z,97064.94
2023-05-22T20:24:22.786Z,97070.13
2023-05-22T20:26:50.360Z,97068.38
2023-05-22T20:29:18.531Z,97071.94
2023-05-22T20:31:46.545Z,97072.53
2023-05-22T20:34:23.035Z,97065.16
2023-05-22T20:36:53.757Z,97069.09
2023-05-22T20:39:25.280Z,97070.06
2023-05-22T20:41:59.349Z,97069.03
2023-05-22T20:44:27.553Z,97067.22
2023-05-22T20:47:04.889Z,97069.31
2023-05-22T20:49:35.436Z,97064.03
2023-05-22T20:52:06.308Z,97065.59
2023-05-22T20:54:38.504Z,97060.91
2023-05-22T20:57:25.598Z,97064.25
2023-05-22T20:59:59.011Z,97061.50
2023-05-22T21:02:38.302Z,97063.47
2023-05-22T21:05:06.841Z,97061.81
2023-05-22T21:07:47.012Z,97067.97
2023-05-22T21:10:18.166Z,97071.59
2023-05-22T21:12:49.117Z,97072.19
2023-05-22T21:15:24.585Z,97069.47
2023-05-22T21:17:52.002Z,97066.47
2023-05-22T21:20:20.016Z,97064.50
2023-05-22T21:23:32.727Z,97066.06
2023-05-22T21:25:54.191Z,97065.97
2023-05-22T21:28:24.583Z,97067.63
2023-05-22T21:30:52.694Z,97065.28
2023-05-22T21:33:20.908Z,97060.28
2023-05-22T21:36:21.935Z,97064.19
2023-05-22T21:38:40.080Z,97054.28
2023-05-22T21:41:07.921Z,97059.38
2023-05-22T21:43:44.475Z,97065.09
2023-05-22T21:46:12.771Z,97064.69
2023-05-22T21:48:40.885Z,97060.56
2023-05-22T21:51:10.035Z,97059.75
2023-05-22T21:53:37.641Z,97065.88
2023-05-22T21:56:05.634Z,97060.88
2023-05-22T21:58:33.153Z,97069.47
2023-05-22T22:01:00.798Z,97063.94
2023-05-22T22:03:29.409Z,97068.41
2023-05-22T22:06:00.515Z,97066.19
2023-05-22T22:08:37.563Z,97061.47
2023-05-22T22:11:12.806Z,97068.94
2023-05-22T22:13:40.122Z,97069.94
2023-05-22T22:16:07.693Z,97050.16
2023-05-22T22:18:34.867Z,97057.63
2023-05-22T22:21:02.591Z,97047.09
2023-05-22T22:23:38.921Z,97061.22
2023-05-22T22:26:09.802Z,97056.53
2023-05-22T22:28:40.023Z,97054.59
2023-05-22T22:31:07.681Z,97060.16
2023-05-22T22:33:38.298Z,97052.13
2023-05-22T22:36:05.807Z,97041.06
2023-05-22T22:38:35.680Z,97051.59
2023-05-22T22:41:05.026Z,97044.38
2023-05-22T22:43:36.481Z,97043.53
2023-05-22T22:46:09.902Z,97045.34
2023-05-22T22:48:42.576Z,97044.66
2023-05-22T22:51:10.026Z,97037.06
2023-05-22T22:53:37.731Z,97042.00
2023-05-22T22:56:07.721Z,97040.66
2023-05-22T22:58:35.111Z,97034.19
2023-05-22T23:01:05.709Z,97043.34
2023-05-22T23:03:40.498Z,97040.28
2023-05-22T23:06:07.800Z,97041.94
2023-05-22T23:08:35.794Z,97042.22
2023-05-22T23:11:03.028Z,97047.75
2023-05-22T23:13:32.937Z,97043.03
2023-05-22T23:16:00.363Z,97045.00
2023-05-22T23:18:27.496Z,97045.00
2023-05-22T23:20:54.502Z,97038.91
2023-05-22T23:23:21.597Z,97044.03
2023-05-22T23:25:48.854Z,97033.94
2023-05-22T23:28:18.665Z,97035.59
2023-05-22T23:30:45.924Z,97033.94
2023-05-22T23:33:12.857Z,97038.63
2023-05-22T23:35:40.256Z,97035.88
2023-05-22T23:38:07.408Z,97024.53
2023-05-22T23:40:34.406Z,97023.16
2023-05-22T23:43:01.762Z,97036.81
2023-05-22T23:45:28.625Z,97028.28
2023-05-22T23:47:55.750Z,97030.06
2023-05-22T23:50:22.828Z,97033.53
2023-05-22T23:52:49.707Z,97022.06
2023-05-22T23:55:17.237Z,97026.88
2023-05-22T23:57:44.584Z,97034.50
